Aeroporto :
LOGIN :

Iscrizione | Disclaimer

   EN    FR    IT 

 










Sommario :    VFR   VFR Marginale   IFR   IFR Intensivo   IFR Molto Intensivo
Visibilità : 
Base nubi : 
>= 8 km
>= 3000ft
5 / 8 km
1000 / 3000 ft
1500m / 5 km
500 / 1000 ft
800 / 1500m
200 / 500 ft
< 800m
< 200 ft
Simboli :   Temporali  Nebbia  Neve Forte  Precipitazioni Forti  Vento > 20 kt
SIGMETs :   Varie  Temporali  Ghiacco  Turbolenza  Onda orograficha  Ceneri Vulcaniche






- Altitudine del aeroporto : 978 ft
- Codice IATA : LNZ


LOWL - Linz

ULTIMO METAR :
  • 290450Z AUTO VRB02KT 9999 OVC060 M01/M02 Q1007 NOSIG

METARs OBSOLETI :
  • 290420Z AUTO 26003KT 9999 FEW050 BKN060 M02/M03 Q1008 NOSIG
  • 290350Z AUTO 26004KT 9999 FEW013 SCT060 M01/M03 Q1008
  • 290320Z AUTO 27007KT 9999 FEW048 OVC050 M01/M03 Q1008
  • 290250Z AUTO 27008KT 9999 FEW046 BKN050 M01/M03 Q1008
  • 290220Z AUTO 28009KT 9999 FEW044 OVC050 M01/M03 Q1008
  • 290150Z AUTO 29008KT 9999 FEW028 OVC032 M01/M03 Q1008
  • 290120Z AUTO 25008KT 9999 FEW030 SCT032 BKN050 M01/M03 Q1008
  • 290050Z AUTO 25007KT 9999 FEW048 BKN050 M01/M03 Q1007
  • 290020Z AUTO 27009KT 9999 FEW013 SCT032 BKN060 M01/M02 Q1007

TAF TAF LOWL
Valido dal 29 a 00 ore il 30 a 00 ore UTC


282315Z 2900/2924 28008KT 9999 BKN035 TX01/2913Z TNM04/2924Z
FM291400 07005KT CAVOK



MetMap, La meteo Aeronautica in un colpo d'occhio ! - Copyright ORBIFLY Dicembre 2007 - Disclaimer

ORBIFLY MET'MAP TEAM :

Programmazione e sviluppo : Alexandra Zaïnal
Concezione : Baudouin d'Aumeries
Supporto tecnico e logistico : Manuel Goepfert
Aiuto : Marc-Olivier Méhu
Aiuto per la traduzione : Arnaldo La Scala




FONTI E CREDITI :

   NOAA